Denver, CO (80208)

6:13 AM MST on February 08, 2016 (GMT -0700)
University Park | | Change Station
CLOSE
Current Station
Personal Weather Station
Location: Denver, CO
Elevation: 5410 ft
Nearby Weather Stations

Elev 5410 ft 39.68 °N, 104.96 °W | Updated 9 minutes ago

Clear
Clear
17.6 °F
Feels Like 18 °F
N
0.0
Wind Variable Wind from WNW

Today
High -- | Low -- °F
--% Chance of Precip.
Yesterday
High -- | Low -- °F
Precip. -- in
Pressure 30.50 in
Visibility 10.0 miles
Clouds Scattered Clouds 9000 ft
Scattered Clouds 16000 ft
Windchill 18 °F
Dew Point 15 °F
Humidity 91%
Rainfall 0.00 in
Snow Depth Not available.
7:00 AM 5:27 PM
Waning Crescent, 0% visible
METAR KAPA 081253Z 12007KT 10SM SCT090 SCT160 M07/M11 A3031 RMK AO2 SLP327 T10721106
Pressure 30.50 in
Visibility 10.0 miles
Clouds Scattered Clouds 9000 ft
Scattered Clouds 16000 ft
Windchill 18 °F
Dew Point 15 °F
Humidity 91%
Rainfall 0.00 in
Snow Depth Not available.
7:00 AM 5:27 PM
Waning Crescent, 0% visible
METAR KAPA 081253Z 12007KT 10SM SCT090 SCT160 M07/M11 A3031 RMK AO2 SLP327 T10721106

10-Day Weather Forecast

Almanac

Astronomy

Feb. 08, 2016 Rise Set
Actual Time
Civil Twilight
Nautical Twilight
Astronomical Twilight
Moon
Length of Visible Light
Length of Day
Tomorrow will be .
, % of the Moon is Illuminated

Today's Extremes

State Highs State Lows

Community

WunderPhotos

Upload Photos

1,891,434 photos uploaded!

WunderBlog® & News

Nearby

Air Quality

  Air Quality AQ Index Pollutant
Not available.

Snow Depth

Station Depth Elevation

Earthquake Activity

City Distance Mag. Time & Date
Minimum magnitude displayed is 2.5.

Coastal Water Temperatures

Place Temperature

Stations

Nearby Weather Stations

Station Location Temp. Windchill Dew Point Humidity Wind Precip. Elev Updated Type
                   

Watches & Warnings

There are currently no watches in effect.